createdAt,value
2018-04-23T00:00:44.931Z,67.34
2018-04-23T00:01:46.331Z,67.44
2018-04-23T00:02:47.717Z,67.25
2018-04-23T00:03:49.116Z,67.34
2018-04-23T00:04:50.505Z,66.77
2018-04-23T00:05:51.893Z,67.34
2018-04-23T00:06:53.283Z,67.34
2018-04-23T00:07:54.668Z,67.34
2018-04-23T00:08:56.059Z,67.72
2018-04-23T00:09:57.457Z,67.91
2018-04-23T00:10:58.856Z,67.54
2018-04-23T00:12:00.241Z,67.57
2018-04-23T00:13:01.628Z,67.95
2018-04-23T00:14:03.022Z,67.76
2018-04-23T00:15:04.410Z,67.47
2018-04-23T00:16:05.802Z,68.14
2018-04-23T00:17:07.186Z,68.21
2018-04-23T00:18:08.589Z,68.24
2018-04-23T00:19:09.970Z,68.05
2018-04-23T00:20:11.357Z,68.43
2018-04-23T00:21:12.741Z,68.43
2018-04-23T00:22:14.127Z,68.62
2018-04-23T00:23:15.523Z,68.72
2018-04-23T00:24:17.604Z,68.33
2018-04-23T00:25:18.240Z,68.33
2018-04-23T00:26:19.624Z,68.52
2018-04-23T00:27:21.005Z,68.72
2018-04-23T00:28:22.397Z,68.81
2018-04-23T00:29:23.773Z,69.01
2018-04-23T00:30:25.167Z,68.62
2018-04-23T00:31:26.557Z,68.68
2018-04-23T00:32:27.948Z,68.40
2018-04-23T00:33:29.334Z,69.54
2018-04-23T00:34:30.720Z,69.35
2018-04-23T00:35:32.113Z,69.07
2018-04-23T00:36:33.500Z,69.35
2018-04-23T00:37:34.894Z,69.26
2018-04-23T00:38:36.278Z,69.54
2018-04-23T00:39:37.671Z,69.54
2018-04-23T00:40:39.058Z,69.74
2018-04-23T00:41:40.446Z,69.45
2018-04-23T00:42:41.851Z,69.64
2018-04-23T00:43:43.232Z,69.93
2018-04-23T00:44:44.618Z,69.74
2018-04-23T00:45:46.022Z,69.64
2018-04-23T00:46:47.391Z,69.64
2018-04-23T00:47:48.783Z,70.41
2018-04-23T00:48:50.175Z,70.21
2018-04-23T00:49:51.569Z,70.60
2018-04-23T00:50:52.948Z,70.60
2018-04-23T00:51:54.347Z,70.60
2018-04-23T00:52:55.739Z,70.41
2018-04-23T00:53:57.134Z,70.60
2018-04-23T00:54:58.525Z,70.70
2018-04-23T00:55:59.905Z,70.98
2018-04-23T00:57:01.300Z,70.98
2018-04-23T00:58:02.685Z,71.08
2018-04-23T00:59:04.087Z,70.89
2018-04-23T01:00:05.471Z,70.98
2018-04-23T01:01:06.851Z,71.08
2018-04-23T01:02:08.244Z,71.27
2018-04-23T01:03:10.171Z,71.56
2018-04-23T01:04:11.560Z,71.66
2018-04-23T01:05:12.945Z,71.27
2018-04-23T01:06:14.346Z,71.37
2018-04-23T01:07:15.744Z,71.46
2018-04-23T01:08:17.131Z,71.27
2018-04-23T01:09:18.518Z,71.27
2018-04-23T01:10:19.904Z,71.08
2018-04-23T01:11:21.297Z,71.37
2018-04-23T01:12:22.694Z,71.27
2018-04-23T01:13:24.088Z,71.56
2018-04-23T01:14:25.476Z,71.66
2018-04-23T01:15:26.856Z,71.75
2018-04-23T01:16:28.244Z,71.94
2018-04-23T01:17:30.116Z,71.94
2018-04-23T01:18:30.975Z,71.37
2018-04-23T01:19:32.336Z,71.94
2018-04-23T01:20:33.735Z,71.66
2018-04-23T01:21:35.105Z,71.56
2018-04-23T01:22:36.511Z,71.27
2018-04-23T01:23:37.898Z,71.37
2018-04-23T01:24:39.288Z,71.17
2018-04-23T01:25:40.671Z,71.27
2018-04-23T01:26:42.057Z,71.17
2018-04-23T01:27:43.448Z,71.46
2018-04-23T01:28:44.846Z,71.94
2018-04-23T01:29:46.232Z,71.37
2018-04-23T01:30:47.616Z,71.94
2018-04-23T01:31:49.017Z,71.75
2018-04-23T01:32:50.417Z,71.94
2018-04-23T01:33:51.792Z,71.94
2018-04-23T01:34:53.171Z,71.94
2018-04-23T01:35:54.568Z,71.75
2018-04-23T01:36:55.968Z,72.03
2018-04-23T01:37:57.338Z,71.75
2018-04-23T01:38:58.732Z,71.84
2018-04-23T01:40:00.121Z,72.42
2018-04-23T01:41:01.508Z,72.23
2018-04-23T01:42:02.902Z,71.84
2018-04-23T01:43:04.306Z,72.23
2018-04-23T01:44:05.680Z,72.32
2018-04-23T01:45:07.085Z,72.42
2018-04-23T01:46:08.472Z,72.03
2018-04-23T01:47:09.864Z,72.13
2018-04-23T01:48:11.244Z,72.23
2018-04-23T01:49:12.638Z,72.23
2018-04-23T01:50:14.019Z,72.23
2018-04-23T01:51:15.413Z,72.32
2018-04-23T01:52:16.795Z,72.23
2018-04-23T01:53:18.210Z,72.42
2018-04-23T01:54:19.599Z,72.99
2018-04-23T01:55:20.989Z,72.71
2018-04-23T01:56:22.385Z,72.23
2018-04-23T01:57:23.771Z,72.71
2018-04-23T01:58:25.163Z,72.03
2018-04-23T01:59:26.564Z,72.61
2018-04-23T02:00:27.943Z,72.80
2018-04-23T02:01:29.333Z,73.09
2018-04-23T02:02:30.721Z,73.28
2018-04-23T02:03:32.105Z,73.09
2018-04-23T02:04:33.490Z,73.47
2018-04-23T02:05:34.876Z,73.95
2018-04-23T02:06:36.244Z,74.05
2018-04-23T02:07:37.632Z,73.86
2018-04-23T02:08:39.035Z,74.15
2018-04-23T02:09:40.414Z,73.95
2018-04-23T02:10:41.808Z,74.24
2018-04-23T02:11:43.192Z,74.24
2018-04-23T02:12:44.568Z,74.24
2018-04-23T02:13:45.962Z,74.43
2018-04-23T02:14:47.369Z,74.52
2018-04-23T02:15:48.744Z,74.62
2018-04-23T02:16:50.139Z,74.82
2018-04-23T02:17:51.522Z,74.72
2018-04-23T02:18:52.914Z,74.72
2018-04-23T02:19:54.311Z,74.82
2018-04-23T02:20:55.701Z,75.20
2018-04-23T02:21:57.088Z,74.97
2018-04-23T02:22:58.487Z,74.97
2018-04-23T02:23:59.883Z,75.64
2018-04-23T02:25:01.267Z,75.54
2018-04-23T02:26:02.657Z,75.83
2018-04-23T02:27:04.042Z,76.69
2018-04-23T02:28:05.445Z,76.31
2018-04-23T02:29:06.826Z,76.31
2018-04-23T02:30:08.218Z,76.60
2018-04-23T02:31:09.586Z,77.08
2018-04-23T02:32:10.986Z,76.98
2018-04-23T02:33:12.367Z,77.04
2018-04-23T02:34:13.766Z,77.33
2018-04-23T02:35:15.148Z,76.94
2018-04-23T02:36:16.542Z,76.84
2018-04-23T02:37:17.936Z,77.13
2018-04-23T02:38:19.326Z,77.61
2018-04-23T02:39:20.714Z,77.61
2018-04-23T02:40:22.114Z,77.90
2018-04-23T02:41:23.512Z,78.28
2018-04-23T02:42:25.838Z,78.19
2018-04-23T02:43:27.229Z,77.90
2018-04-23T02:44:28.620Z,78.47
2018-04-23T02:45:30.007Z,78.57
2018-04-23T02:46:31.389Z,78.76
2018-04-23T02:47:32.788Z,78.57
2018-04-23T02:48:34.165Z,79.05
2018-04-23T02:49:35.552Z,78.86
2018-04-23T02:50:36.933Z,78.86
2018-04-23T02:51:38.325Z,78.95
2018-04-23T02:52:39.709Z,78.91
2018-04-23T02:53:41.099Z,79.29
2018-04-23T02:54:42.483Z,79.05
2018-04-23T02:55:43.869Z,79.49
2018-04-23T02:56:45.260Z,79.49
2018-04-23T02:57:46.633Z,79.96
2018-04-23T02:58:48.026Z,79.77
2018-04-23T02:59:49.406Z,79.96
2018-04-23T03:00:50.787Z,79.39
2018-04-23T03:01:52.176Z,79.77
2018-04-23T03:02:53.568Z,79.96
2018-04-23T03:03:54.946Z,80.16
2018-04-23T03:04:56.328Z,80.06
2018-04-23T03:05:57.712Z,80.06
2018-04-23T03:06:59.100Z,79.96
2018-04-23T03:08:00.478Z,80.63
2018-04-23T03:09:01.870Z,80.92
2018-04-23T03:10:03.221Z,80.44
2018-04-23T03:11:04.609Z,80.63
2018-04-23T03:12:05.993Z,81.21
2018-04-23T03:13:07.379Z,81.40
2018-04-23T03:14:08.762Z,80.92
2018-04-23T03:15:10.160Z,81.11
2018-04-23T03:16:11.546Z,81.59
2018-04-23T03:17:12.933Z,81.59
2018-04-23T03:18:14.321Z,81.40
2018-04-23T03:19:15.705Z,81.49
2018-04-23T03:20:17.088Z,81.30
2018-04-23T03:21:18.473Z,81.59
2018-04-23T03:22:19.857Z,81.40
2018-04-23T03:23:21.239Z,81.40
2018-04-23T03:24:22.617Z,81.30
2018-04-23T03:25:24.011Z,81.59
2018-04-23T03:26:25.398Z,81.40
2018-04-23T03:27:26.790Z,81.30
2018-04-23T03:28:28.170Z,81.30
2018-04-23T03:29:29.551Z,81.30
2018-04-23T03:30:30.947Z,81.59
2018-04-23T03:31:32.322Z,81.49
2018-04-23T03:32:33.714Z,81.40
2018-04-23T03:33:35.094Z,81.97
2018-04-23T03:34:36.486Z,81.88
2018-04-23T03:35:37.874Z,82.31
2018-04-23T03:36:39.952Z,82.31
2018-04-23T03:37:41.346Z,82.60
2018-04-23T03:38:42.737Z,82.70
2018-04-23T03:39:44.115Z,82.79
2018-04-23T03:40:45.502Z,82.51
2018-04-23T03:41:46.889Z,82.51
2018-04-23T03:42:48.281Z,82.51
2018-04-23T03:43:49.663Z,82.60
2018-04-23T03:44:51.055Z,82.51
2018-04-23T03:45:52.441Z,82.51
2018-04-23T03:46:53.823Z,82.60
2018-04-23T03:47:55.207Z,82.03
2018-04-23T03:48:56.601Z,82.51
2018-04-23T03:49:57.984Z,82.79
2018-04-23T03:50:59.371Z,82.79
2018-04-23T03:52:00.752Z,82.79
2018-04-23T03:53:02.144Z,82.89
2018-04-23T03:54:03.531Z,82.70
2018-04-23T03:55:04.920Z,82.79
2018-04-23T03:56:06.314Z,82.79
2018-04-23T03:57:07.692Z,82.60
2018-04-23T03:58:09.079Z,82.79
2018-04-23T03:59:10.465Z,82.79
2018-04-23T04:00:11.862Z,82.89
2018-04-23T04:01:13.249Z,83.17
2018-04-23T04:02:14.633Z,83.27
2018-04-23T04:03:16.017Z,84.03
2018-04-23T04:04:17.410Z,84.03
2018-04-23T04:05:18.800Z,83.65
2018-04-23T04:06:20.188Z,83.84
2018-04-23T04:07:21.577Z,83.27
2018-04-23T04:08:22.959Z,83.94
2018-04-23T04:09:24.391Z,83.46
2018-04-23T04:10:25.689Z,84.03
2018-04-23T04:11:27.077Z,83.94
2018-04-23T04:12:28.466Z,83.94
2018-04-23T04:13:29.849Z,83.94
2018-04-23T04:14:31.247Z,83.84
2018-04-23T04:15:32.637Z,84.03
2018-04-23T04:16:34.026Z,83.94
2018-04-23T04:17:35.419Z,84.13
2018-04-23T04:18:36.817Z,84.52
2018-04-23T04:19:38.203Z,84.61
2018-04-23T04:20:39.594Z,85.09
2018-04-23T04:21:40.979Z,84.80
2018-04-23T04:22:42.372Z,84.80
2018-04-23T04:23:43.760Z,84.70
2018-04-23T04:24:45.207Z,85.09
2018-04-23T04:25:46.504Z,84.61
2018-04-23T04:26:47.890Z,84.52
2018-04-23T04:27:49.278Z,85.28
2018-04-23T04:28:50.670Z,84.80
2018-04-23T04:29:52.054Z,84.89
2018-04-23T04:30:53.438Z,84.80
2018-04-23T04:31:54.837Z,84.80
2018-04-23T04:32:56.222Z,84.32
2018-04-23T04:33:57.615Z,84.42
2018-04-23T04:34:59.009Z,84.46
2018-04-23T04:36:00.400Z,84.65
2018-04-23T04:37:01.783Z,83.89
2018-04-23T04:38:03.181Z,83.89
2018-04-23T04:39:04.567Z,84.46
2018-04-23T04:40:05.973Z,83.50
2018-04-23T04:41:07.357Z,83.98
2018-04-23T04:42:08.757Z,83.89
2018-04-23T04:43:10.160Z,83.60
2018-04-23T04:44:12.257Z,83.98
2018-04-23T04:45:13.654Z,83.40
2018-04-23T04:46:15.847Z,83.50
2018-04-23T04:47:17.221Z,83.60
2018-04-23T04:48:18.604Z,83.89
2018-04-23T04:49:20.000Z,83.93
2018-04-23T04:50:21.396Z,83.93
2018-04-23T04:51:22.823Z,84.12
2018-04-23T04:52:24.184Z,84.02
2018-04-23T04:53:25.574Z,83.83
2018-04-23T04:54:26.962Z,84.22
2018-04-23T04:55:28.353Z,83.26
2018-04-23T04:56:29.752Z,83.93
2018-04-23T04:57:31.131Z,84.02
2018-04-23T04:58:32.516Z,84.31
2018-04-23T04:59:33.918Z,83.64
2018-04-23T05:00:35.305Z,83.36
2018-04-23T05:01:36.697Z,83.64
2018-04-23T05:02:38.101Z,83.54
2018-04-23T05:03:39.501Z,83.20
2018-04-23T05:04:40.892Z,82.82
2018-04-23T05:05:42.278Z,82.73
2018-04-23T05:06:43.676Z,82.00
2018-04-23T05:07:45.063Z,82.00
2018-04-23T05:08:46.460Z,81.04
2018-04-23T05:09:47.860Z,80.76
2018-04-23T05:10:49.241Z,80.66
2018-04-23T05:11:50.649Z,80.85
2018-04-23T05:12:52.031Z,80.66
2018-04-23T05:13:53.423Z,80.08
2018-04-23T05:14:54.827Z,79.60
2018-04-23T05:15:56.221Z,79.60
2018-04-23T05:16:57.615Z,79.45
2018-04-23T05:17:59.008Z,79.45
2018-04-23T05:19:00.413Z,79.07
2018-04-23T05:20:01.820Z,78.97
2018-04-23T05:21:03.189Z,78.69
2018-04-23T05:22:04.582Z,78.69
2018-04-23T05:23:05.968Z,78.82
2018-04-23T05:24:07.366Z,78.40
2018-04-23T05:25:08.751Z,78.25
2018-04-23T05:26:10.149Z,78.34
2018-04-23T05:27:11.555Z,78.15
2018-04-23T05:28:12.940Z,78.05
2018-04-23T05:29:14.343Z,77.95
2018-04-23T05:30:15.731Z,78.05
2018-04-23T05:31:17.130Z,78.25
2018-04-23T05:32:18.529Z,78.38
2018-04-23T05:33:19.917Z,77.58
2018-04-23T05:34:21.307Z,77.71
2018-04-23T05:35:22.699Z,77.71
2018-04-23T05:36:24.093Z,77.90
2018-04-23T05:37:25.491Z,77.80
2018-04-23T05:38:26.880Z,77.61
2018-04-23T05:39:28.270Z,77.61
2018-04-23T05:40:29.667Z,78.19
2018-04-23T05:41:31.068Z,78.09
2018-04-23T05:42:32.458Z,78.09
2018-04-23T05:43:33.845Z,78.09
2018-04-23T05:44:35.233Z,78.47
2018-04-23T05:45:36.621Z,78.47
2018-04-23T05:46:38.023Z,78.77
2018-04-23T05:47:39.412Z,78.77
2018-04-23T05:48:40.796Z,78.38
2018-04-23T05:49:42.177Z,79.34
2018-04-23T05:50:43.576Z,79.24
2018-04-23T05:51:44.962Z,79.05
2018-04-23T05:52:46.363Z,79.01
2018-04-23T05:53:47.750Z,79.30
2018-04-23T05:54:49.162Z,79.82
2018-04-23T05:55:50.554Z,79.82
2018-04-23T05:56:51.941Z,79.82
2018-04-23T05:57:53.334Z,79.63
2018-04-23T05:58:54.724Z,79.44
2018-04-23T05:59:56.118Z,79.78
2018-04-23T06:00:57.512Z,79.82
2018-04-23T06:01:58.897Z,79.63
2018-04-23T06:03:00.327Z,79.24
2018-04-23T06:04:01.678Z,79.14
2018-04-23T06:05:03.074Z,79.24
2018-04-23T06:06:04.469Z,79.44
2018-04-23T06:07:05.858Z,79.05
2018-04-23T06:08:07.251Z,78.96
2018-04-23T06:09:08.646Z,79.14
2018-04-23T06:10:10.034Z,79.05
2018-04-23T06:11:11.428Z,78.67
2018-04-23T06:12:12.826Z,78.67
2018-04-23T06:13:14.208Z,78.09
2018-04-23T06:14:15.606Z,78.42
2018-04-23T06:15:17.009Z,78.23
2018-04-23T06:16:18.402Z,77.56
2018-04-23T06:17:19.798Z,76.79
2018-04-23T06:18:21.188Z,76.82
2018-04-23T06:19:22.578Z,75.87
2018-04-23T06:20:23.979Z,75.10
2018-04-23T06:21:25.371Z,75.00
2018-04-23T06:22:26.810Z,74.37
2018-04-23T06:23:28.234Z,74.08
2018-04-23T06:24:29.618Z,74.08
2018-04-23T06:25:31.013Z,74.27
2018-04-23T06:26:32.410Z,74.46
2018-04-23T06:27:33.805Z,74.62
2018-04-23T06:28:35.194Z,74.52
2018-04-23T06:29:36.586Z,75.20
2018-04-23T06:30:37.983Z,75.57
2018-04-23T06:31:39.369Z,75.96
2018-04-23T06:32:40.773Z,76.64
2018-04-23T06:33:42.163Z,76.21
2018-04-23T06:34:43.563Z,77.17
2018-04-23T06:35:44.953Z,77.26
2018-04-23T06:36:46.347Z,77.65
2018-04-23T06:37:47.737Z,77.56
2018-04-23T06:38:49.129Z,77.46
2018-04-23T06:39:50.521Z,77.36
2018-04-23T06:40:51.919Z,77.75
2018-04-23T06:41:53.316Z,77.75
2018-04-23T06:42:54.703Z,78.03
2018-04-23T06:43:56.095Z,78.52
2018-04-23T06:44:57.494Z,78.42
2018-04-23T06:45:58.884Z,78.70
2018-04-23T06:47:00.272Z,78.52
2018-04-23T06:48:01.665Z,78.42
2018-04-23T06:49:03.064Z,78.70
2018-04-23T06:50:04.458Z,78.23
2018-04-23T06:51:05.851Z,78.90
2018-04-23T06:52:07.242Z,78.61
2018-04-23T06:53:08.948Z,78.32
2018-04-23T06:54:10.339Z,78.23
2018-04-23T06:55:11.726Z,78.03
2018-04-23T06:56:13.124Z,77.56
2018-04-23T06:57:14.509Z,77.75
2018-04-23T06:58:15.907Z,77.65
2018-04-23T06:59:17.304Z,77.26
2018-04-23T07:00:18.684Z,77.75
2018-04-23T07:01:20.066Z,77.75
2018-04-23T07:02:21.463Z,77.46
2018-04-23T07:03:22.855Z,77.75
2018-04-23T07:04:24.252Z,77.26
2018-04-23T07:05:25.643Z,76.88
2018-04-23T07:06:27.031Z,77.65
2018-04-23T07:07:28.421Z,77.56
2018-04-23T07:08:29.811Z,77.84
2018-04-23T07:09:31.207Z,77.26
2018-04-23T07:10:32.611Z,77.26
2018-04-23T07:11:33.987Z,76.79
2018-04-23T07:12:35.379Z,76.98
2018-04-23T07:13:36.771Z,76.98
2018-04-23T07:14:38.157Z,77.56
2018-04-23T07:15:39.547Z,77.26
2018-04-23T07:16:41.012Z,77.36
2018-04-23T07:17:42.327Z,76.88
2018-04-23T07:18:43.714Z,76.21
2018-04-23T07:19:45.117Z,76.40
2018-04-23T07:20:46.499Z,76.50
2018-04-23T07:21:47.893Z,76.88
2018-04-23T07:22:49.297Z,76.69
2018-04-23T07:23:50.693Z,76.88
2018-04-23T07:24:52.094Z,76.59
2018-04-23T07:25:53.483Z,76.15
2018-04-23T07:26:54.867Z,75.87
2018-04-23T07:27:56.274Z,76.25
2018-04-23T07:28:57.677Z,75.77
2018-04-23T07:29:59.067Z,75.96
2018-04-23T07:31:00.466Z,75.57
2018-04-23T07:32:01.852Z,76.34
2018-04-23T07:33:03.263Z,75.87
2018-04-23T07:34:04.641Z,76.15
2018-04-23T07:35:06.735Z,76.92
2018-04-23T07:36:08.127Z,76.06
2018-04-23T07:37:09.517Z,76.15
2018-04-23T07:38:10.925Z,75.67
2018-04-23T07:39:12.329Z,75.87
2018-04-23T07:40:13.713Z,76.06
2018-04-23T07:41:15.101Z,76.34
2018-04-23T07:42:16.501Z,76.73
2018-04-23T07:43:17.886Z,76.15
2018-04-23T07:44:19.283Z,75.57
2018-04-23T07:45:20.680Z,75.57
2018-04-23T07:46:22.067Z,75.67
2018-04-23T07:47:23.460Z,75.96
2018-04-23T07:48:24.858Z,75.52
2018-04-23T07:49:26.244Z,74.94
2018-04-23T07:50:27.647Z,75.04
2018-04-23T07:51:29.037Z,74.85
2018-04-23T07:52:30.438Z,75.07
2018-04-23T07:53:31.835Z,74.50
2018-04-23T07:54:34.005Z,74.02
2018-04-23T07:55:37.754Z,73.19
2018-04-23T07:56:39.147Z,73.00
2018-04-23T07:57:40.539Z,72.23
2018-04-23T07:58:46.079Z,72.03
2018-04-23T07:59:47.477Z,71.46
2018-04-23T08:00:48.871Z,72.03
2018-04-23T08:01:50.261Z,71.84
2018-04-23T08:02:55.833Z,71.65
2018-04-23T08:03:57.223Z,71.08
2018-04-23T08:05:02.186Z,70.88
2018-04-23T08:06:06.231Z,70.98
2018-04-23T08:07:07.632Z,70.68
2018-04-23T08:08:10.901Z,70.11
2018-04-23T08:09:14.319Z,70.11
2018-04-23T08:10:15.721Z,70.82
2018-04-23T08:11:17.941Z,70.78
2018-04-23T08:12:21.825Z,70.82
2018-04-23T08:13:23.224Z,70.82
2018-04-23T08:14:28.770Z,70.24
2018-04-23T08:15:30.851Z,70.01
2018-04-23T08:16:32.251Z,70.30
2018-04-23T08:17:33.647Z,70.43
2018-04-23T08:18:35.379Z,70.62
2018-04-23T08:19:36.771Z,69.85
2018-04-23T08:20:40.762Z,70.62
2018-04-23T08:21:42.959Z,70.15
2018-04-23T08:22:46.453Z,70.34
2018-04-23T08:23:48.249Z,69.85
2018-04-23T08:24:49.972Z,70.62
2018-04-23T08:25:51.397Z,70.76
2018-04-23T08:26:52.798Z,69.70
2018-04-23T08:27:58.363Z,69.02
2018-04-23T08:29:02.800Z,68.77
2018-04-23T08:30:04.190Z,68.77
2018-04-23T08:31:07.275Z,67.71
2018-04-23T08:32:08.677Z,67.55
2018-04-23T08:33:10.085Z,68.10
2018-04-23T08:34:14.160Z,67.26
2018-04-23T08:35:15.548Z,67.36
2018-04-23T08:36:19.014Z,67.46
2018-04-23T08:37:20.770Z,66.20
2018-04-23T08:38:22.160Z,66.04
2018-04-23T08:39:26.393Z,65.37
2018-04-23T08:40:29.694Z,66.43
2018-04-23T08:41:31.094Z,65.75
2018-04-23T08:42:32.501Z,65.17
2018-04-23T08:43:33.888Z,64.43
2018-04-23T08:44:35.295Z,64.34
2018-04-23T08:45:37.190Z,63.57
2018-04-23T08:46:38.580Z,63.76
2018-04-23T08:47:39.988Z,63.79
2018-04-23T08:48:41.382Z,63.31
2018-04-23T08:49:43.086Z,62.82
2018-04-23T08:50:44.541Z,62.25
2018-04-23T08:51:45.937Z,62.15
2018-04-23T08:52:47.345Z,61.38
2018-04-23T08:53:48.949Z,62.28
2018-04-23T08:54:50.359Z,61.57
2018-04-23T08:55:55.050Z,61.31
2018-04-23T08:56:57.173Z,61.02
2018-04-23T08:57:58.574Z,61.02
2018-04-23T08:58:59.975Z,60.73
2018-04-23T09:00:01.596Z,59.96
2018-04-23T09:01:02.964Z,60.93
2018-04-23T09:02:04.374Z,60.64
2018-04-23T09:03:05.775Z,60.44
2018-04-23T09:04:07.180Z,59.96
2018-04-23T09:05:08.591Z,59.38
2018-04-23T09:06:09.994Z,60.06
2018-04-23T09:07:11.398Z,59.86
2018-04-23T09:08:12.801Z,59.19
2018-04-23T09:09:15.389Z,59.48
2018-04-23T09:10:16.797Z,59.38
2018-04-23T09:11:18.196Z,59.41
2018-04-23T09:12:19.588Z,58.15
2018-04-23T09:13:20.987Z,59.02
2018-04-23T09:14:22.375Z,59.22
2018-04-23T09:15:28.073Z,59.22
2018-04-23T09:16:30.769Z,59.12
2018-04-23T09:17:32.171Z,58.45
2018-04-23T09:18:34.379Z,58.25
2018-04-23T09:19:39.330Z,58.25
2018-04-23T09:20:40.726Z,57.38
2018-04-23T09:21:42.122Z,56.90
2018-04-23T09:22:43.526Z,57.48
2018-04-23T09:23:44.922Z,57.09
2018-04-23T09:24:48.809Z,56.90
2018-04-23T09:25:50.155Z,56.93
2018-04-23T09:26:53.429Z,56.90
2018-04-23T09:27:54.791Z,56.99
2018-04-23T09:28:56.189Z,57.70
2018-04-23T09:29:57.581Z,56.90
2018-04-23T09:30:58.998Z,56.51
2018-04-23T09:32:00.386Z,55.45
2018-04-23T09:33:01.783Z,55.77
2018-04-23T09:34:03.191Z,54.49
2018-04-23T09:35:04.591Z,54.49
2018-04-23T09:36:05.985Z,53.91
2018-04-23T09:37:07.384Z,54.19
2018-04-23T09:38:08.784Z,54.13
2018-04-23T09:39:10.179Z,53.64
2018-04-23T09:40:11.578Z,52.29
2018-04-23T09:41:12.977Z,52.19
2018-04-23T09:42:14.383Z,51.51
2018-04-23T09:43:15.784Z,51.71
2018-04-23T09:44:17.181Z,51.35
2018-04-23T09:45:18.596Z,51.23
2018-04-23T09:46:20.000Z,51.32
2018-04-23T09:47:21.394Z,52.09
2018-04-23T09:48:22.792Z,53.25
2018-04-23T09:49:24.191Z,51.61
2018-04-23T09:50:25.598Z,52.09
2018-04-23T09:51:26.991Z,52.00
2018-04-23T09:52:28.401Z,52.00
2018-04-23T09:53:29.785Z,52.84
2018-04-23T09:54:31.183Z,53.23
2018-04-23T09:55:32.583Z,53.83
2018-04-23T09:56:33.979Z,53.83
2018-04-23T09:57:35.379Z,53.16
2018-04-23T09:58:36.852Z,53.16
2018-04-23T09:59:38.181Z,52.58
2018-04-23T10:00:39.586Z,52.22
2018-04-23T10:01:40.976Z,51.93
2018-04-23T10:02:42.375Z,51.76
2018-04-23T10:03:43.779Z,50.43
2018-04-23T10:04:45.173Z,49.49
2018-04-23T10:05:46.577Z,50.35
2018-04-23T10:06:47.973Z,49.19
2018-04-23T10:07:49.374Z,48.93
2018-04-23T10:08:50.779Z,47.96
2018-04-23T10:09:52.175Z,47.86
2018-04-23T10:10:53.592Z,46.70
2018-04-23T10:11:54.974Z,46.33
2018-04-23T10:12:56.379Z,46.62
2018-04-23T10:13:57.786Z,46.92
2018-04-23T10:14:59.196Z,46.62
2018-04-23T10:16:00.607Z,46.65
2018-04-23T10:17:02.049Z,45.41
2018-04-23T10:18:03.437Z,45.61
2018-04-23T10:19:04.834Z,45.24
2018-04-23T10:20:06.225Z,44.54
2018-04-23T10:21:07.635Z,45.20
2018-04-23T10:22:09.041Z,45.97
2018-04-23T10:23:10.438Z,46.82
2018-04-23T10:24:11.851Z,47.09
2018-04-23T10:25:13.251Z,47.64
2018-04-23T10:26:14.659Z,48.88
2018-04-23T10:27:16.071Z,49.56
2018-04-23T10:28:17.464Z,50.33
2018-04-23T10:29:18.866Z,49.87
2018-04-23T10:30:20.264Z,49.29
2018-04-23T10:31:22.223Z,49.32
2018-04-23T10:32:23.581Z,50.07
2018-04-23T10:33:24.984Z,49.19
2018-04-23T10:34:26.380Z,49.97
2018-04-23T10:35:27.782Z,50.24
2018-04-23T10:36:29.177Z,50.72
2018-04-23T10:37:30.577Z,52.05
2018-04-23T10:38:31.967Z,53.35
2018-04-23T10:39:33.371Z,54.22
2018-04-23T10:40:34.773Z,55.16
2018-04-23T10:41:36.159Z,55.55
2018-04-23T10:42:37.576Z,55.62
2018-04-23T10:43:38.965Z,56.84
2018-04-23T10:44:40.378Z,58.00
2018-04-23T10:45:41.771Z,58.39
2018-04-23T10:46:43.173Z,59.13
2018-04-23T10:47:44.571Z,59.52
2018-04-23T10:48:45.966Z,60.55
2018-04-23T10:49:47.360Z,60.64
2018-04-23T10:50:48.752Z,61.03
2018-04-23T10:51:50.152Z,61.03
2018-04-23T10:52:51.551Z,61.29
2018-04-23T10:53:52.950Z,62.06
2018-04-23T10:54:54.349Z,62.15
2018-04-23T10:55:55.744Z,62.73
2018-04-23T10:56:57.134Z,62.83
2018-04-23T10:57:58.534Z,62.25
2018-04-23T10:58:59.928Z,61.96
2018-04-23T11:00:01.327Z,61.68
2018-04-23T11:01:02.720Z,61.38
2018-04-23T11:02:04.115Z,61.68
2018-04-23T11:03:05.509Z,61.38
2018-04-23T11:04:06.915Z,61.00
2018-04-23T11:05:08.320Z,60.26
2018-04-23T11:06:09.718Z,59.87
2018-04-23T11:07:11.117Z,59.78
2018-04-23T11:08:12.516Z,59.42
2018-04-23T11:09:13.926Z,59.16
2018-04-23T11:10:15.328Z,58.10
2018-04-23T11:11:17.323Z,57.62
2018-04-23T11:12:18.720Z,57.42
2018-04-23T11:13:20.117Z,57.23
2018-04-23T11:14:21.530Z,57.06
2018-04-23T11:15:22.921Z,56.10
2018-04-23T11:16:24.328Z,54.94
2018-04-23T11:17:25.735Z,54.87
2018-04-23T11:18:27.132Z,54.61
2018-04-23T11:19:28.538Z,53.28
2018-04-23T11:20:29.931Z,52.22
2018-04-23T11:21:31.332Z,51.15
2018-04-23T11:22:33.428Z,50.79
2018-04-23T11:23:34.795Z,50.76
2018-04-23T11:24:36.212Z,49.63
2018-04-23T11:25:37.604Z,50.21
2018-04-23T11:26:39.014Z,49.56
2018-04-23T11:27:40.410Z,49.65
2018-04-23T11:28:41.816Z,48.20
2018-04-23T11:29:43.217Z,47.81
2018-04-23T11:30:44.621Z,48.42
2018-04-23T11:31:46.029Z,48.42
2018-04-23T11:32:47.429Z,47.55
2018-04-23T11:33:48.830Z,47.55
2018-04-23T11:34:50.221Z,48.81
2018-04-23T11:35:51.635Z,48.13
2018-04-23T11:36:53.033Z,47.64
2018-04-23T11:37:54.432Z,46.09
2018-04-23T11:38:55.853Z,46.58
2018-04-23T11:39:57.258Z,46.00
2018-04-23T11:40:58.661Z,45.78
2018-04-23T11:42:00.065Z,46.29
2018-04-23T11:43:01.465Z,46.36
2018-04-23T11:44:02.867Z,47.24
2018-04-23T11:45:04.310Z,47.16
2018-04-23T11:46:05.675Z,46.39
2018-04-23T11:47:07.065Z,46.75
2018-04-23T11:48:08.482Z,45.88
2018-04-23T11:49:09.877Z,46.05
2018-04-23T11:50:11.276Z,45.83
2018-04-23T11:51:12.678Z,46.92
2018-04-23T11:52:14.075Z,45.25
2018-04-23T11:53:15.466Z,45.54
2018-04-23T11:54:16.872Z,45.93
2018-04-23T11:55:18.272Z,45.64
2018-04-23T11:56:19.676Z,45.83
2018-04-23T11:57:21.079Z,46.61
2018-04-23T11:58:22.483Z,45.93
2018-04-23T11:59:23.884Z,45.54
2018-04-23T12:00:25.290Z,45.25
2018-04-23T12:01:26.684Z,45.06
2018-04-23T12:02:28.101Z,45.47
2018-04-23T12:03:29.490Z,45.47
2018-04-23T12:04:30.891Z,45.57
2018-04-23T12:05:32.291Z,45.66
2018-04-23T12:06:33.687Z,45.86
2018-04-23T12:07:36.276Z,45.47
2018-04-23T12:08:37.698Z,45.86
2018-04-23T12:09:39.102Z,45.95
2018-04-23T12:10:41.234Z,46.63
2018-04-23T12:11:42.643Z,45.57
2018-04-23T12:12:44.043Z,45.57
2018-04-23T12:13:45.440Z,45.06
2018-04-23T12:14:46.848Z,44.77
2018-04-23T12:15:48.251Z,44.96
2018-04-23T12:16:50.597Z,44.70
2018-04-23T12:17:51.995Z,44.67
2018-04-23T12:18:53.411Z,44.38
2018-04-23T12:19:54.796Z,44.38
2018-04-23T12:20:56.201Z,44.57
2018-04-23T12:21:57.602Z,44.67
2018-04-23T12:22:59.002Z,44.07
2018-04-23T12:24:00.403Z,44.84
2018-04-23T12:25:01.809Z,45.33
2018-04-23T12:26:03.210Z,45.04
2018-04-23T12:27:04.624Z,45.62
2018-04-23T12:28:06.045Z,45.01
2018-04-23T12:29:07.426Z,45.23
2018-04-23T12:30:08.822Z,44.43
2018-04-23T12:31:10.230Z,43.95
2018-04-23T12:32:11.635Z,44.34
2018-04-23T12:33:13.028Z,44.82
2018-04-23T12:34:14.421Z,45.01
2018-04-23T12:35:15.829Z,45.01
2018-04-23T12:36:17.225Z,45.38
2018-04-23T12:37:18.622Z,46.64
2018-04-23T12:38:20.039Z,45.48
2018-04-23T12:39:21.425Z,45.57
2018-04-23T12:40:22.825Z,45.67
2018-04-23T12:41:24.220Z,46.15
2018-04-23T12:42:25.637Z,45.76
2018-04-23T12:43:27.029Z,45.36
2018-04-23T12:44:28.427Z,45.96
2018-04-23T12:45:29.834Z,46.44
2018-04-23T12:46:32.172Z,45.57
2018-04-23T12:47:33.585Z,45.00
2018-04-23T12:48:34.991Z,45.76
2018-04-23T12:49:36.400Z,45.76
2018-04-23T12:50:37.784Z,45.28
2018-04-23T12:51:39.186Z,45.57
2018-04-23T12:52:40.582Z,45.38
2018-04-23T12:53:41.996Z,45.75
2018-04-23T12:54:43.389Z,45.65
2018-04-23T12:55:45.754Z,45.94
2018-04-23T12:56:47.157Z,46.61
2018-04-23T12:57:48.547Z,46.42
2018-04-23T12:58:49.957Z,47.67
2018-04-23T12:59:51.357Z,46.88
2018-04-23T13:00:52.761Z,47.77
2018-04-23T13:01:54.174Z,48.23
2018-04-23T13:02:55.574Z,47.09
2018-04-23T13:03:56.974Z,46.90
2018-04-23T13:04:58.387Z,46.64
2018-04-23T13:05:59.789Z,46.54
2018-04-23T13:07:01.200Z,46.34
2018-04-23T13:08:02.596Z,45.76
2018-04-23T13:09:03.994Z,45.57
2018-04-23T13:10:05.392Z,46.06
2018-04-23T13:11:06.793Z,46.54
2018-04-23T13:12:08.195Z,46.81